Latest Weather Observations for Gunnedah Airport

IDN60801

Issued at 11:35 pm EST Tuesday 2 September 2014 (issued every 30 minutes, with the page automatically refreshed every 10 minutes)

About weather observations | Map of weather stations | Latest weather observations for NSW | Other Formats
Station Details ID: 055202 Name: GUNNEDAH AIRPORT AWS Lat: -30.95 Lon: 150.25 Height: 262.57 m
Data from the previous 72 hours. | See also: Recent months at Gunnedah Airport
Date/Time
EST
Temp
°C
App
Temp
°C
Dew
Point
Rel
Hum
%
Delta-T
°C
Wind Press
QNH
hPa
Press
MSL
hPa
Rain
since 9 am
mm
Dir
 
Spd
km/h
Gust
km/h
Spd
kts
Gust
kts
02/11:30pm 5.7 1.4 1.2 73 1.8 WNW 13 19 7 10 1015.0 - 1.6
02/11:00pm 7.0 2.5 2.3 72 2.0 WNW 15 19 8 10 1015.0 1014.7 1.6
02/10:30pm 6.6 1.7 1.7 71 2.0 NW 17 20 9 11 1015.1 - 1.6
02/10:00pm 6.9 3.1 1.6 69 2.2 NW 11 13 6 7 1015.5 1015.2 1.6
02/09:30pm 7.0 3.1 1.3 67 2.3 NW 11 13 6 7 1015.5 - 1.6
02/09:00pm 7.5 4.0 1.4 65 2.5 WNW 9 11 5 6 1015.4 1015.1 1.6
02/08:30pm 8.1 3.9 1.5 63 2.7 W 13 17 7 9 1015.3 - 1.6
02/08:00pm 10.5 4.9 1.3 53 3.9 WSW 20 28 11 15 1015.1 1014.8 1.6
02/07:30pm 11.4 4.9 2.9 56 3.8 SSW 26 44 14 24 1015.2 - 1.6
02/07:00pm 9.8 5.4 2.9 62 3.0 WSW 15 19 8 10 1014.4 1014.1 1.6
02/06:30pm 10.4 5.6 2.7 59 3.4 W 17 20 9 11 1013.7 - 1.6
02/06:00pm 12.1 5.9 2.3 51 4.3 WSW 24 33 13 18 1013.4 1013.1 1.6
02/05:30pm 13.3 6.6 1.3 44 5.2 WSW 26 37 14 20 1012.7 - 1.6
02/05:00pm 14.2 8.1 2.5 45 5.3 W 24 37 13 20 1012.2 1011.9 1.6
02/04:30pm 14.8 6.9 1.0 39 6.0 SW 32 44 17 24 1012.1 - 1.6
02/04:04pm 15.5 7.6 2.0 40 6.1 WSW 33 52 18 28 1011.7 - 1.6
02/04:00pm 15.5 7.4 1.3 38 6.3 WSW 33 46 18 25 1011.7 1011.4 1.6
02/03:50pm 14.6 6.6 0.1 37 6.2 WSW 32 50 17 27 1011.7 - 1.6
02/03:30pm 16.3 8.6 3.4 42 6.0 WSW 33 48 18 26 1011.6 - 1.6
02/03:15pm 15.9 7.6 2.0 39 6.3 WSW 35 54 19 29 1011.3 - 1.6
02/03:00pm 15.8 7.7 3.3 43 5.8 WSW 35 48 19 26 1011.3 1011.0 1.6
02/02:44pm 16.4 9.2 5.7 49 5.2 WSW 33 52 18 28 1011.3 - 1.6
02/02:30pm 15.8 7.4 3.9 45 5.6 WSW 37 48 20 26 1011.1 - 1.6
02/02:00pm 16.0 8.6 3.8 44 5.7 WSW 32 44 17 24 1011.2 1010.9 1.6
02/01:30pm 14.4 7.8 6.0 57 4.1 WSW 30 39 16 21 1011.5 - 1.6
02/01:00pm 15.0 8.9 8.3 64 3.4 WSW 30 43 16 23 1011.5 1011.2 1.6
02/12:30pm 14.0 8.4 8.8 71 2.7 WSW 28 37 15 20 1011.7 - 1.6
02/12:00pm 11.6 5.8 8.1 79 1.7 WSW 28 50 15 27 1011.7 1011.4 1.6
02/11:53am 12.4 6.2 7.7 73 2.3 WSW 30 50 16 27 1011.8 - 1.2
02/11:30am 14.7 12.7 11.5 81 1.7 NW 13 19 7 10 1011.5 - 1.2
02/11:00am 12.2 9.4 9.9 86 1.2 NW 15 20 8 11 1012.0 1011.7 1.2
02/10:30am 12.1 9.4 9.1 82 1.5 NW 13 20 7 11 1012.2 - 0.8
02/10:00am 13.7 10.7 7.5 66 3.1 WNW 13 17 7 9 1011.6 1011.3 0.0
02/09:30am 13.9 12.9 7.2 64 3.3 N 2 7 1 4 1011.3 - 0.0
02/09:00am 13.1 10.1 7.5 69 2.8 N 13 22 7 12 1011.9 1011.6 0.0
02/08:30am 13.7 11.5 7.7 67 3.0 N 9 13 5 7 1011.9 - 0.0
02/08:00am 12.4 9.0 7.5 72 2.4 N 15 20 8 11 1012.0 1011.7 0.0
02/07:30am 12.1 9.7 7.2 72 2.4 N 9 13 5 7 1012.7 - 0.0
02/07:00am 12.5 9.9 6.3 66 3.0 N 9 15 5 8 1012.3 1012.0 0.0
02/06:30am 12.8 10.5 5.9 63 3.3 SW 7 9 4 5 1012.0 - 0.0
02/06:00am 13.1 7.2 6.0 62 3.4 SW 26 41 14 22 1011.4 1011.1 0.0
02/05:30am 12.5 9.5 4.0 56 3.9 S 9 13 5 7 1011.3 - 0.0
02/05:00am 11.9 7.1 4.4 60 3.4 W 19 26 10 14 1011.0 1010.7 0.0
02/04:30am 11.2 6.6 6.5 73 2.2 WSW 20 26 11 14 1010.9 - 0.0
02/04:00am 8.4 5.8 5.9 84 1.2 S 9 11 5 6 1010.0 1009.7 0.0
02/03:30am 8.0 5.8 5.1 82 1.3 SSE 6 7 3 4 1010.3 - 0.0
02/03:00am 8.4 7.4 5.7 83 1.2 CALM 0 0 0 0 1010.4 1010.0 0.0
02/02:30am 7.9 6.8 5.0 82 1.3 CALM 0 0 0 0 1010.9 - 0.0
02/02:00am 8.6 7.6 5.5 81 1.4 CALM 0 0 0 0 1011.4 1011.1 0.0
02/01:30am 9.4 8.5 6.1 80 1.5 CALM 0 0 0 0 1011.9 - 0.0
02/01:00am 9.2 8.4 6.5 83 1.3 CALM 0 0 0 0 1012.3 1012.0 0.0
02/12:30am 9.6 8.9 6.9 83 1.3 CALM 0 0 0 0 1012.7 - 0.0
02/12:00am 9.3 8.4 6.0 80 1.5 WSW 0 0 0 0 1012.9 1012.6 0.0
 
Date/Time
EST
Temp
°C
App
Temp
°C
Dew
Point
Rel
Hum
%
Delta-T
°C
Wind Press
QNH
hPa
Press
MSL
hPa
Rain
since 9 am
mm
Dir
 
Spd
km/h
Gust
km/h
Spd
kts
Gust
kts
01/11:30pm 10.3 9.7 7.2 81 1.5 CALM 0 0 0 0 1013.2 - 0.0
01/11:00pm 10.0 9.3 7.1 82 1.4 CALM 0 0 0 0 1013.4 1013.1 0.0
01/10:30pm 10.6 9.8 6.6 76 1.9 CALM 0 0 0 0 1013.6 - 0.0
01/10:00pm 11.1 10.3 6.6 74 2.2 CALM 0 6 0 3 1013.8 1013.5 0.0
01/09:30pm 12.3 11.6 7.0 70 2.6 CALM 0 0 0 0 1013.8 - 0.0
01/09:00pm 11.7 11.0 6.8 72 2.4 CALM 0 0 0 0 1014.1 1013.8 0.0
01/08:30pm 12.4 10.5 5.1 61 3.4 NW 4 7 2 4 1014.3 - 0.0
01/08:00pm 14.6 13.6 5.7 55 4.3 CALM 0 0 0 0 1014.1 1013.8 0.0
01/07:30pm 13.8 11.4 5.2 56 4.1 NNW 7 15 4 8 1014.1 - 0.0
01/07:00pm 16.6 12.9 4.3 44 5.8 N 13 17 7 9 1013.9 1013.6 0.0
01/06:30pm 17.6 14.0 4.9 43 6.2 N 13 17 7 9 1013.7 - 0.0
01/06:00pm 17.7 13.7 5.0 43 6.2 N 15 19 8 10 1013.8 1013.5 0.0
01/05:30pm 17.4 14.0 6.0 47 5.6 N 13 15 7 8 1013.8 - 0.0
01/05:00pm 19.1 15.6 5.6 41 6.7 N 13 17 7 9 1013.8 1013.5 0.0
01/04:30pm 20.2 15.9 5.1 37 7.5 N 17 22 9 12 1013.9 - 0.0
01/04:00pm 20.8 16.4 4.8 35 7.9 NNW 17 22 9 12 1013.9 1013.6 0.0
01/03:30pm 21.6 17.6 5.1 34 8.3 NNW 15 22 8 12 1013.9 - 0.0
01/03:00pm 21.2 17.2 4.7 34 8.2 NNW 15 20 8 11 1014.0 1013.7 0.0
01/02:30pm 21.2 17.0 5.9 37 7.8 NNW 17 22 9 12 1014.3 - 0.0
01/02:00pm 20.9 16.5 4.5 34 8.1 NNW 17 26 9 14 1014.7 1014.4 0.0
01/01:30pm 21.5 18.5 6.2 37 7.8 WNW 11 19 6 10 1015.3 - 0.0
01/01:00pm 20.8 17.0 6.0 38 7.5 W 15 24 8 13 1015.8 1015.5 0.0
01/12:30pm 20.4 15.5 5.2 37 7.6 NW 20 30 11 16 1016.7 - 0.0
01/12:00pm 20.2 16.3 7.2 43 6.7 WNW 17 24 9 13 1017.3 1017.0 0.0
01/11:30am 20.0 17.0 9.3 50 5.7 NW 15 20 8 11 1017.7 - 0.0
01/11:00am 18.8 17.1 9.8 56 4.8 NNW 9 17 5 9 1018.0 1017.8 0.0
01/10:30am 17.5 16.7 9.7 60 4.2 N 4 7 2 4 1018.1 - 0.0
01/10:00am 16.4 15.1 10.0 66 3.4 ENE 7 11 4 6 1018.4 1018.1 0.0
01/09:30am 14.5 13.1 9.7 73 2.5 E 7 11 4 6 1018.8 - 0.0
01/09:00am 13.2 11.9 9.3 77 2.0 E 6 9 3 5 1019.2 1019.3 0.0
01/08:30am 11.8 10.4 9.5 86 1.2 E 7 9 4 5 1019.4 - 0.0
01/08:00am 9.5 9.2 8.7 95 0.4 CALM 0 0 0 0 1019.4 1019.5 0.0
01/07:30am 7.7 7.0 7.1 96 0.3 CALM 0 0 0 0 1019.2 - 0.0
01/07:00am 4.0 2.6 3.3 95 0.3 CALM 0 0 0 0 1018.8 1018.9 0.0
01/06:30am 2.9 1.3 2.2 95 0.3 CALM 0 0 0 0 1018.6 - 0.0
01/06:00am 2.0 0.2 1.1 94 0.3 CALM 0 0 0 0 1018.4 1018.5 0.0
01/05:30am 1.9 0.1 0.9 93 0.4 CALM 0 0 0 0 1017.7 - 0.0
01/05:00am 3.3 0.9 2.4 94 0.4 ESE 4 7 2 4 1017.4 1017.6 0.0
01/04:30am 3.5 0.6 2.6 94 0.4 SE 7 9 4 5 1017.2 - 0.0
01/04:00am 2.7 0.6 1.8 94 0.4 E 2 11 1 6 1016.9 1017.1 0.0
01/03:30am 4.2 2.8 3.3 94 0.4 CALM 0 0 0 0 1016.9 - 0.0
01/03:00am 4.3 2.9 3.4 94 0.4 CALM 0 0 0 0 1017.1 1017.3 0.0
01/02:30am 4.2 2.8 3.3 94 0.4 CALM 0 0 0 0 1017.4 - 0.0
01/02:00am 4.9 1.9 4.0 94 0.4 S 9 11 5 6 1017.6 1017.8 0.0
01/01:30am 4.9 1.9 3.9 93 0.4 E 9 11 5 6 1017.6 - 0.0
01/01:00am 4.5 1.4 3.5 93 0.4 ENE 9 11 5 6 1017.9 1018.1 0.0
01/12:30am 5.4 4.2 4.5 94 0.4 CALM 0 0 0 0 1018.3 - 0.0
01/12:00am 6.4 5.4 5.5 94 0.4 CALM 0 4 0 2 1018.3 1018.4 0.0
 
Date/Time
EST
Temp
°C
App
Temp
°C
Dew
Point
Rel
Hum
%
Delta-T
°C
Wind Press
QNH
hPa
Press
MSL
hPa
Rain
since 9 am
mm
Dir
 
Spd
km/h
Gust
km/h
Spd
kts
Gust
kts
31/11:30pm 6.3 4.5 5.3 93 0.4 W 4 7 2 4 1018.5 - 0.0
31/11:00pm 6.7 5.3 5.7 93 0.5 ENE 2 7 1 4 1018.4 1018.5 0.0
31/10:30pm 7.3 6.4 6.1 92 0.6 CALM 0 0 0 0 1018.1 - 0.0
31/10:00pm 8.1 5.9 6.1 87 0.9 S 7 9 4 5 1018.3 1018.4 0.0
31/09:30pm 7.5 5.4 5.8 89 0.8 SSE 6 11 3 6 1018.1 - 0.0
31/09:00pm 8.3 7.4 6.1 86 1.0 CALM 0 0 0 0 1018.0 1018.2 0.0
31/08:30pm 9.7 9.1 7.6 87 1.0 CALM 0 0 0 0 1018.0 - 0.0
31/08:00pm 10.0 9.3 7.1 82 1.4 CALM 0 0 0 0 1017.9 1018.1 0.0
31/07:30pm 10.8 10.4 8.2 84 1.3 CALM 0 0 0 0 1017.9 - 0.0
31/07:00pm 11.7 11.0 7.0 73 2.3 CALM 0 0 0 0 1017.5 1017.7 0.0
31/06:30pm 14.2 14.0 9.0 71 2.7 CALM 0 0 0 0 1017.2 - 0.0
31/06:00pm 16.3 16.0 8.8 61 3.9 CALM 0 0 0 0 1017.1 1017.3 0.0
31/05:30pm 18.3 18.0 8.6 53 5.1 CALM 0 0 0 0 1016.9 - 0.0
31/05:00pm 20.4 20.0 8.1 45 6.5 CALM 0 0 0 0 1016.9 1017.1 0.0
31/04:30pm 19.7 18.0 8.4 48 5.9 SSE 7 11 4 6 1016.8 - 0.0
31/04:00pm 20.2 19.6 8.8 48 6.1 NNE 2 7 1 4 1016.8 1017.0 0.0
31/03:30pm 20.2 19.9 8.5 47 6.2 CALM 0 0 0 0 1017.0 - 0.0
31/03:00pm 18.3 16.5 9.6 57 4.6 SE 9 13 5 7 1017.1 1017.3 0.0
31/02:30pm 20.4 19.3 9.9 51 5.7 NNE 6 9 3 5 1017.2 - 0.0
31/02:00pm 18.9 16.9 8.8 52 5.3 SE 9 13 5 7 1017.6 1017.8 0.0
31/01:30pm 19.9 17.7 9.2 50 5.7 E 11 17 6 9 1017.8 - 0.0
31/01:00pm 19.7 18.4 9.9 53 5.3 SSE 7 11 4 6 1018.4 1018.5 0.0
31/12:30pm 18.7 16.9 9.5 55 4.9 SW 9 13 5 7 1018.8 - 0.0
31/12:00pm 18.1 15.8 8.9 55 4.8 SSE 11 19 6 10 1019.2 1019.3 0.0
31/11:30am 17.7 15.3 8.8 56 4.7 ESE 11 17 6 9 1019.5 - 0.0
31/11:00am 17.4 14.9 9.8 61 4.0 ESE 13 22 7 12 1019.9 1020.1 0.0
31/10:30am 16.5 14.1 10.1 66 3.4 SSE 13 20 7 11 1020.4 - 0.0
31/10:00am 15.8 12.8 10.6 71 2.8 SE 17 24 9 13 1020.7 1020.9 0.0
31/09:30am 14.9 12.7 10.9 77 2.1 SE 13 17 7 9 1020.8 - 0.0
31/09:00am 13.6 10.9 10.4 81 1.7 SE 15 20 8 11 1021.1 1021.3 0.0
31/08:30am 12.5 9.9 9.5 82 1.5 SE 13 17 7 9 1021.4 - 0.0
31/08:00am 11.6 8.8 9.9 89 0.9 SSE 15 17 8 9 1021.1 1021.3 0.0
31/07:30am 9.4 9.1 8.8 96 0.3 CALM 0 0 0 0 1021.0 - 0.0
31/07:00am 5.8 4.7 5.1 95 0.3 CALM 0 0 0 0 1020.8 1021.0 0.0
31/06:30am 3.6 2.0 2.7 94 0.4 CALM 0 0 0 0 1020.8 - 0.0
31/06:00am 4.5 3.1 3.6 94 0.4 CALM 0 0 0 0 1020.5 1020.7 0.0
31/05:30am 4.6 3.3 3.9 95 0.3 CALM 0 0 0 0 1020.1 - 0.0
31/05:00am 4.6 3.2 3.7 94 0.4 CALM 0 0 0 0 1019.9 1020.1 0.0
31/04:30am 3.8 1.5 2.9 94 0.4 SE 4 9 2 5 1019.9 - 0.0
31/04:00am 4.9 3.6 4.0 94 0.4 CALM 0 6 0 3 1019.9 1020.1 0.0
31/03:30am 4.9 1.9 3.9 93 0.4 NNE 9 11 5 6 1020.0 - 0.0
31/03:00am 5.9 3.4 4.9 93 0.4 E 7 9 4 5 1020.1 1020.3 0.0
31/02:30am 6.7 4.0 5.7 93 0.5 ESE 9 11 5 6 1020.2 - 0.0
31/02:00am 7.2 4.6 6.0 92 0.5 SE 9 13 5 7 1020.3 1020.5 0.0
31/01:30am 7.7 6.9 6.6 93 0.5 CALM 0 0 0 0 1020.7 - 0.0
31/01:00am 7.8 4.9 6.3 90 0.7 E 11 13 6 7 1020.8 1021.0 0.0
31/12:30am 8.5 5.2 6.6 88 0.9 SE 13 15 7 8 1020.8 - 0.0
31/12:00am 9.3 8.4 7.6 89 0.8 NNW 2 7 1 4 1021.1 1021.3 0.0

Other Formats:

Comma delimited format used in spreadsheet applications
http://www.bom.gov.au/fwo/IDN60801/IDN60801.95740.axf

JavaScript Object Notation format (JSON) in row-major order
http://www.bom.gov.au/fwo/IDN60801/IDN60801.95740.json